Time;durP1;ratioP1;P1;durP2;ratioP2;P2;SDS_P1;SDS_P2;PMS_P1;PMS_P2;Temp;Humidity;BMP_temperature;BMP_pressure;BME280_temperature;BME280_humidity;BME280_pressure;Samples;Min_cycle;Max_cycle;Signal;HPM_P1;HPM_P2
2022/03/10 00:01:36;;;;;;;25.50;12.10;;;;;;;-2.57;74.54;102009.60;84807;1327;22638;-79
2022/03/10 00:03:45;;;;;;;26.50;13.00;;;;;;;-2.57;74.34;102015.05;84787;1325;22661;-78
2022/03/10 00:05:54;;;;;;;25.00;12.50;;;;;;;-2.57;74.40;102014.56;84786;1318;22821;-79
2022/03/10 00:08:07;;;;;;;27.40;13.60;;;;;;;-2.57;74.50;102016.28;84802;1326;22801;-79
2022/03/10 00:10:19;;;;;;;21.70;11.00;;;;;;;-2.55;74.49;102016.66;84798;1326;25282;-79
2022/03/10 00:12:28;;;;;;;23.20;11.70;;;;;;;-2.56;74.39;102017.33;84770;1327;25499;-72
2022/03/10 00:14:41;;;;;;;21.80;10.90;;;;;;;-2.58;74.53;102023.39;84738;1322;22596;-72
2022/03/10 00:16:50;;;;;;;21.00;10.10;;;;;;;-2.62;74.35;102024.30;84810;1326;22593;-79
2022/03/10 00:18:58;;;;;;;21.60;10.60;;;;;;;-2.63;74.39;102030.20;84803;1327;22645;-79
2022/03/10 00:21:11;;;;;;;20.90;10.60;;;;;;;-2.68;74.26;102032.56;84738;1326;22589;-73
2022/03/10 00:23:22;;;;;;;16.50;9.80;;;;;;;-2.72;74.47;102028.63;84795;1325;24303;-72
2022/03/10 00:25:37;;;;;;;15.90;9.20;;;;;;;-2.74;74.32;102026.84;84815;1327;25310;-72
2022/03/10 00:27:49;;;;;;;17.90;9.90;;;;;;;-2.77;74.18;102031.32;84805;1327;22808;-79
2022/03/10 00:29:58;;;;;;;18.90;10.10;;;;;;;-2.79;74.29;102034.81;84824;1318;22794;-79
2022/03/10 00:32:07;;;;;;;17.30;8.90;;;;;;;-2.78;74.44;102038.08;84828;1328;25292;-72
2022/03/10 00:34:17;;;;;;;20.00;10.30;;;;;;;-2.78;74.35;102038.77;84773;1323;22593;-73
2022/03/10 00:36:29;;;;;;;17.10;9.90;;;;;;;-2.78;74.64;102039.11;84113;1322;1003000;-78
2022/03/10 00:38:41;;;;;;;19.30;9.80;;;;;;;-2.78;74.39;102042.69;84788;1322;24762;-79
2022/03/10 00:40:49;;;;;;;16.50;9.20;;;;;;;-2.82;74.43;102048.85;84782;1324;22585;-78
2022/03/10 00:43:13;;;;;;;15.70;9.60;;;;;;;-2.87;74.57;102051.22;84774;1323;23180;-79
2022/03/10 00:45:22;;;;;;;15.70;9.00;;;;;;;-2.90;74.48;102049.54;84798;1329;22662;-79
2022/03/10 00:47:35;;;;;;;18.00;9.80;;;;;;;-2.93;74.40;102050.96;84811;1323;25492;-79
2022/03/10 00:49:43;;;;;;;18.90;11.00;;;;;;;-2.95;74.42;102053.05;84751;1327;22603;-79
2022/03/10 00:51:55;;;;;;;19.10;10.40;;;;;;;-2.98;74.38;102060.96;84780;1327;22840;-79
2022/03/10 00:54:04;;;;;;;17.20;10.20;;;;;;;-3.00;74.32;102064.79;84791;1322;22866;-79
2022/03/10 00:56:14;;;;;;;19.40;10.30;;;;;;;-3.02;74.55;102064.02;84805;1327;22590;-72
2022/03/10 00:58:25;;;;;;;16.90;10.10;;;;;;;-3.02;74.59;102068.61;84822;1327;24085;-72
2022/03/10 01:00:37;;;;;;;17.40;9.20;;;;;;;-3.02;74.91;102071.52;84795;1329;22599;-72
2022/03/10 01:02:47;;;;;;;18.20;9.10;;;;;;;-3.03;74.61;102071.31;84811;1330;22590;-78
2022/03/10 01:04:56;;;;;;;15.90;9.00;;;;;;;-3.05;74.78;102073.78;84765;1326;22602;-79
2022/03/10 01:07:05;;;;;;;17.40;9.30;;;;;;;-3.08;74.53;102073.85;84788;1327;25461;-72
2022/03/10 01:09:17;;;;;;;19.20;10.40;;;;;;;-3.11;74.66;102076.79;84792;1326;23978;-71
2022/03/10 01:11:27;;;;;;;19.30;9.90;;;;;;;-3.14;74.56;102081.08;84103;1326;1003008;-72
2022/03/10 01:13:37;;;;;;;11.30;7.40;;;;;;;-3.17;74.64;102084.33;84777;1319;24171;-72
2022/03/10 01:15:47;;;;;;;16.30;9.10;;;;;;;-3.21;74.54;102088.08;84774;1326;26703;-72
2022/03/10 01:17:57;;;;;;;16.20;9.10;;;;;;;-3.25;74.74;102088.95;84791;1326;22619;-78
2022/03/10 01:20:08;;;;;;;;;;;;;;;-3.28;75.11;102089.64;84808;1326;25362;-78
2022/03/10 01:22:20;;;;;;;16.10;9.00;;;;;;;-3.31;74.92;102094.46;84757;1322;22625;-78
2022/03/10 01:24:33;;;;;;;13.70;9.50;;;;;;;-3.29;75.03;102094.54;84799;1326;22606;-78
2022/03/10 01:26:42;;;;;;;19.00;9.50;;;;;;;-3.31;74.99;102096.19;84795;1327;24301;-78
2022/03/10 01:28:51;;;;;;;16.60;9.20;;;;;;;-3.30;75.01;102103.71;84777;1329;23225;-78
2022/03/10 01:31:00;;;;;;;14.70;9.60;;;;;;;-3.31;75.09;102103.99;84809;1326;24262;-77
2022/03/10 01:33:09;;;;;;;17.10;9.40;;;;;;;-3.35;75.06;102109.12;84790;1325;22590;-72
2022/03/10 01:35:21;;;;;;;15.80;9.80;;;;;;;-3.39;75.00;102108.63;84771;1326;22750;-72
2022/03/10 01:37:32;;;;;;;15.40;9.60;;;;;;;-3.41;74.97;102114.48;84772;1327;24113;-79
2022/03/10 01:39:41;;;;;;;17.10;9.20;;;;;;;-3.45;74.95;102115.84;84780;1326;22594;-78
2022/03/10 01:41:51;;;;;;;17.30;9.90;;;;;;;-3.48;74.85;102118.09;84801;1325;22596;-71
2022/03/10 01:44:01;;;;;;;16.80;9.90;;;;;;;-3.52;74.98;102121.47;84821;1327;23859;-72
2022/03/10 01:46:13;;;;;;;16.10;9.60;;;;;;;-3.57;75.06;102122.08;84764;1327;22595;-73
2022/03/10 01:48:23;;;;;;;17.00;10.60;;;;;;;-3.59;74.97;102122.33;84681;1326;22610;-73
2022/03/10 01:50:32;;;;;;;22.30;10.10;;;;;;;-3.61;75.06;102122.73;84809;1327;22548;-73
2022/03/10 01:52:41;;;;;;;14.30;7.40;;;;;;;-3.61;75.14;102126.98;84774;1311;22547;-73
2022/03/10 01:54:53;;;;;;;16.50;9.10;;;;;;;-3.62;75.18;102125.59;84783;1329;22593;-73
2022/03/10 01:57:02;;;;;;;17.50;9.00;;;;;;;-3.61;75.19;102126.98;84794;1325;25048;-73
2022/03/10 01:59:10;;;;;;;;;;;;;;;-3.61;75.30;102134.82;84837;1327;25240;-73
2022/03/10 02:01:22;;;;;;;18.30;9.60;;;;;;;-3.66;75.45;102137.89;84757;1326;22829;-72
2022/03/10 02:03:34;;;;;;;19.00;9.90;;;;;;;-3.69;75.26;102139.45;84798;1326;22600;-72
2022/03/10 02:05:45;;;;;;;18.30;9.30;;;;;;;-3.71;75.32;102145.15;84114;1322;1003850;-72
2022/03/10 02:10:23;;;;;;;18.30;9.80;;;;;;;-3.80;75.29;102148.92;84791;1327;22726;-72
2022/03/10 02:12:33;;;;;;;18.20;12.30;;;;;;;-3.84;75.21;102152.15;84790;1330;22593;-72
2022/03/10 02:17:21;;;;;;;17.50;10.80;;;;;;;-3.95;75.51;102158.09;84770;1326;25506;-72
2022/03/10 02:19:30;;;;;;;18.10;9.90;;;;;;;-3.97;75.55;102161.25;84810;1325;22725;-73
2022/03/10 02:21:39;;;;;;;14.70;9.40;;;;;;;-3.98;75.64;102160.35;84616;1327;274740;-80
2022/03/10 02:23:48;;;;;;;18.00;9.70;;;;;;;-3.97;75.48;102158.69;84767;1330;25472;-78
2022/03/10 02:26:00;;;;;;;14.70;8.50;;;;;;;-3.95;75.74;102163.38;84783;1327;22836;-74
2022/03/10 02:28:09;;;;;;;20.60;9.50;;;;;;;-3.93;75.82;102166.35;84799;1328;24397;-79
2022/03/10 02:30:19;;;;;;;17.90;10.20;;;;;;;-3.94;75.78;102165.63;84783;1327;26579;-79
2022/03/10 02:32:28;;;;;;;16.90;9.00;;;;;;;-3.95;75.82;102165.59;84843;1327;22587;-75
2022/03/10 02:34:41;;;;;;;18.50;9.90;;;;;;;-3.98;75.54;102172.25;84118;1325;1002772;-73
2022/03/10 02:36:50;;;;;;;16.90;10.10;;;;;;;-4.02;75.48;102177.02;84784;1327;22615;-79
2022/03/10 02:39:02;;;;;;;12.50;8.80;;;;;;;-4.06;75.68;102182.61;84782;1318;22616;-79
2022/03/10 02:41:11;;;;;;;17.10;9.90;;;;;;;-4.10;75.44;102179.68;84818;1327;24446;-73
2022/03/10 02:43:22;;;;;;;12.70;7.20;;;;;;;-4.12;75.61;102185.54;84791;1325;26474;-73
2022/03/10 02:45:32;;;;;;;20.40;9.90;;;;;;;-4.14;75.68;102187.34;84781;1327;22595;-71
2022/03/10 02:47:42;;;;;;;;;;;;;;;-4.13;75.67;102190.58;84108;1327;1003890;-73
2022/03/10 02:49:51;;;;;;;13.90;8.80;;;;;;;-4.15;75.78;102192.20;84789;1326;22605;-73
2022/03/10 02:52:02;;;;;;;17.70;9.50;;;;;;;-4.14;76.07;102200.11;84799;1327;22625;-74
2022/03/10 02:54:14;;;;;;;12.70;8.70;;;;;;;-4.14;75.80;102202.98;84777;1327;22593;-74
2022/03/10 02:56:26;;;;;;;13.40;9.40;;;;;;;-4.13;76.19;102209.49;84822;1328;26628;-77
2022/03/10 02:58:35;;;;;;;14.60;9.50;;;;;;;-4.16;75.72;102210.41;84756;1326;24115;-77
2022/03/10 03:00:44;;;;;;;17.40;8.80;;;;;;;-4.16;75.91;102213.79;84768;1327;22589;-77
2022/03/10 03:02:53;;;;;;;18.40;10.50;;;;;;;-4.20;76.00;102217.88;84777;1327;22764;-73
2022/03/10 03:05:06;;;;;;;21.00;12.10;;;;;;;-4.24;75.63;102221.94;84102;1327;1005537;-76
2022/03/10 03:07:15;;;;;;;25.20;14.20;;;;;;;-4.27;75.68;102224.48;84812;1327;25939;-79
2022/03/10 03:09:24;;;;;;;21.00;12.70;;;;;;;-4.31;75.67;102230.53;84800;1322;22590;-80
2022/03/10 03:11:33;;;;;;;25.00;11.10;;;;;;;-4.34;75.61;102233.11;84815;1328;22605;-73
2022/03/10 03:13:43;;;;;;;28.70;15.30;;;;;;;-4.35;75.76;102235.63;84111;1326;1002975;-72
2022/03/10 03:15:55;;;;;;;36.30;15.20;;;;;;;-4.36;75.68;102234.52;84782;1327;22763;-72
2022/03/10 03:18:04;;;;;;;22.30;11.70;;;;;;;-4.37;75.54;102234.66;84761;1327;22607;-72
2022/03/10 03:20:15;;;;;;;28.10;13.60;;;;;;;-4.36;75.74;102236.92;84787;1326;25281;-73
2022/03/10 03:22:27;;;;;;;22.70;12.00;;;;;;;-4.37;75.46;102241.50;84781;1326;25432;-77
2022/03/10 03:24:37;;;;;;;32.70;13.60;;;;;;;-4.37;75.54;102245.10;84818;1329;22616;-77
2022/03/10 03:26:46;;;;;;;31.80;13.80;;;;;;;-4.37;75.41;102250.71;84768;1327;22727;-72
2022/03/10 03:28:57;;;;;;;60.80;22.70;;;;;;;-4.39;75.35;102252.64;84761;1326;22622;-72
2022/03/10 03:31:06;;;;;;;40.80;15.30;;;;;;;-4.41;75.40;102254.58;84764;1330;23921;-72
2022/03/10 03:33:18;;;;;;;63.60;22.00;;;;;;;-4.45;75.07;102255.23;84689;1326;25284;-73
2022/03/10 03:35:27;;;;;;;38.60;15.60;;;;;;;-4.48;75.04;102256.60;84751;1329;22593;-73
2022/03/10 03:37:36;;;;;;;32.60;14.70;;;;;;;-4.51;74.99;102256.05;84736;1328;24242;-78
2022/03/10 03:39:48;;;;;;;47.10;19.40;;;;;;;-4.56;74.71;102259.92;84008;1321;1002522;-79
2022/03/10 03:41:57;;;;;;;51.10;18.50;;;;;;;-4.60;74.85;102262.57;84730;1329;22593;-78
2022/03/10 03:44:07;;;;;;;53.90;19.60;;;;;;;-4.64;74.79;102266.13;84684;1321;22752;-78
2022/03/10 03:46:19;;;;;;;60.00;21.90;;;;;;;-4.67;74.69;102276.16;84013;1327;1003364;-76
2022/03/10 03:48:29;;;;;;;40.90;16.00;;;;;;;-4.69;74.69;102278.77;84741;1328;22638;-79
2022/03/10 03:50:38;;;;;;;44.10;17.50;;;;;;;-4.70;74.66;102284.86;84766;1327;22602;-76
2022/03/10 03:52:47;;;;;;;22.60;11.70;;;;;;;-4.69;74.62;102287.80;84724;1327;22611;-73
2022/03/10 03:54:56;;;;;;;33.80;14.20;;;;;;;-4.69;74.56;102291.04;84693;1328;23960;-72
2022/03/10 03:57:09;;;;;;;50.10;20.50;;;;;;;-4.69;74.40;102289.33;84003;1329;1002939;-73
2022/03/10 03:59:20;;;;;;;61.50;21.80;;;;;;;-4.70;74.43;102294.94;84719;1328;22598;-73
2022/03/10 04:01:29;;;;;;;71.50;27.80;;;;;;;-4.71;74.32;102297.25;84758;1327;22600;-73
2022/03/10 04:03:38;;;;;;;65.50;25.40;;;;;;;-4.75;74.10;102295.68;84761;1327;22612;-72
2022/03/10 04:05:51;;;;;;;44.80;17.10;;;;;;;-4.79;74.05;102299.85;84043;1328;1003400;-73
2022/03/10 04:08:01;;;;;;;44.70;19.70;;;;;;;-4.84;74.03;102296.52;84656;1330;22644;-73
2022/03/10 04:10:11;;;;;;;48.10;22.30;;;;;;;-4.88;73.82;102300.39;84761;1326;22848;-73
2022/03/10 04:12:23;;;;;;;25.20;12.00;;;;;;;-4.94;73.87;102306.85;84775;1329;22601;-78
2022/03/10 04:14:33;;;;;;;33.50;16.00;;;;;;;-4.99;73.87;102305.73;84703;1324;22645;-78
2022/03/10 04:16:44;;;;;;;;;;;;;;;-5.02;73.85;102309.82;84736;1329;22587;-73
2022/03/10 04:18:53;;;;;;;21.90;13.00;;;;;;;-5.07;73.93;102309.04;84681;1328;24242;-72
2022/03/10 04:21:03;;;;;;;16.00;9.80;;;;;;;-5.08;73.96;102312.88;84711;1331;26025;-72
2022/03/10 04:23:12;;;;;;;16.00;10.20;;;;;;;-5.09;73.90;102314.17;84748;1327;23844;-72
2022/03/10 04:25:22;;;;;;;13.60;8.10;;;;;;;-5.11;73.86;102313.73;84694;1329;25301;-73
2022/03/10 04:27:31;;;;;;;14.60;9.10;;;;;;;-5.11;73.99;102319.52;84719;1330;22920;-79
2022/03/10 04:29:44;;;;;;;16.60;10.30;;;;;;;-5.11;74.01;102318.35;84707;1330;22551;-77
2022/03/10 04:31:54;;;;;;;20.40;10.20;;;;;;;-5.12;74.00;102322.48;84056;1327;1003444;-72
2022/03/10 04:34:05;;;;;;;18.40;10.40;;;;;;;-5.15;73.90;102327.28;84693;1328;23981;-72
2022/03/10 04:36:15;;;;;;;17.10;10.20;;;;;;;-5.19;73.76;102329.80;84721;1330;22649;-73
2022/03/10 04:38:29;;;;;;;18.00;9.80;;;;;;;-5.22;73.67;102332.70;84705;1329;25262;-73
2022/03/10 04:40:39;;;;;;;22.80;10.50;;;;;;;-5.25;73.79;102335.89;84689;1329;22606;-72
2022/03/10 04:42:52;;;;;;;19.10;9.80;;;;;;;-5.29;73.79;102333.15;84708;1328;22604;-79
2022/03/10 04:45:02;;;;;;;19.20;10.80;;;;;;;-5.32;73.55;102337.00;84744;1329;22860;-78
2022/03/10 04:47:11;;;;;;;14.90;9.80;;;;;;;-5.35;73.57;102341.76;84720;1329;25434;-72
2022/03/10 04:49:21;;;;;;;18.40;8.90;;;;;;;-5.38;73.52;102341.59;84687;1329;22632;-70
2022/03/10 04:51:35;;;;;;;15.20;8.90;;;;;;;-5.40;73.46;102345.05;84816;1329;25284;-78
2022/03/10 04:53:44;;;;;;;16.40;8.90;;;;;;;-5.41;73.44;102348.95;84769;1327;22590;-78
2022/03/10 04:55:57;;;;;;;15.10;8.10;;;;;;;-5.40;73.70;102350.02;84735;1330;23989;-78
2022/03/10 04:58:08;;;;;;;11.30;7.30;;;;;;;-5.38;73.51;102353.69;84712;1328;24226;-78
2022/03/10 05:00:19;;;;;;;15.30;8.90;;;;;;;-5.36;73.54;102354.83;84705;1328;22589;-77
2022/03/10 05:02:28;;;;;;;15.60;9.10;;;;;;;-5.35;73.61;102355.04;84068;1327;1003877;-78
2022/03/10 05:04:41;;;;;;;18.10;9.50;;;;;;;-5.36;73.43;102358.25;84741;1327;26569;-78
2022/03/10 05:06:50;;;;;;;14.50;9.00;;;;;;;-5.36;73.35;102361.99;84785;1326;22607;-70
2022/03/10 05:08:59;;;;;;;16.00;8.60;;;;;;;-5.37;73.40;102365.66;84767;1327;22586;-72
2022/03/10 05:11:09;;;;;;;18.30;9.40;;;;;;;-5.39;73.21;102371.48;84709;1328;22588;-75
2022/03/10 05:13:18;;;;;;;15.10;8.20;;;;;;;-5.40;73.23;102383.48;84769;1327;22773;-76
2022/03/10 05:15:32;;;;;;;12.80;7.80;;;;;;;-5.42;73.17;102384.04;84765;1330;22881;-77
2022/03/10 05:17:41;;;;;;;14.40;8.40;;;;;;;-5.45;73.16;102383.90;84793;1329;22622;-77
2022/03/10 05:19:53;;;;;;;13.10;8.20;;;;;;;-5.48;73.19;102386.80;84041;1326;1002863;-76
2022/03/10 05:22:00;;;;;;;;;;;;;;;-5.50;73.12;102393.27;84800;1327;23880;-76
2022/03/10 05:24:13;;;;;;;18.40;8.20;;;;;;;-5.53;73.22;102397.03;84738;1327;22610;-77
2022/03/10 05:26:27;;;;;;;14.10;7.60;;;;;;;-5.53;73.29;102401.09;84677;1329;22637;-73
2022/03/10 05:28:37;;;;;;;16.70;7.30;;;;;;;-5.50;73.35;102407.92;84733;1327;23949;-73
2022/03/10 05:30:48;;;;;;;14.40;7.30;;;;;;;-5.46;73.24;102413.42;84770;1327;22620;-72
2022/03/10 05:32:58;;;;;;;14.00;8.50;;;;;;;-5.41;73.37;102419.33;84780;1328;22597;-76
2022/03/10 05:35:14;;;;;;;14.00;7.70;;;;;;;-5.37;73.35;102415.64;84754;1324;22844;-76
2022/03/10 05:37:25;;;;;;;13.90;7.40;;;;;;;-5.31;73.33;102423.67;84770;1327;24641;-72
2022/03/10 05:39:36;;;;;;;12.00;7.30;;;;;;;-5.27;73.26;102434.31;84777;1327;25467;-72
2022/03/10 05:41:46;;;;;;;15.00;7.70;;;;;;;-5.23;73.04;102435.85;84070;1330;1003609;-75
2022/03/10 05:43:58;;;;;;;13.80;7.60;;;;;;;-5.20;73.07;102437.96;84028;1331;1003484;-76
2022/03/10 05:46:07;;;;;;;14.30;8.80;;;;;;;-5.15;72.84;102442.31;84751;1329;22596;-79
2022/03/10 05:48:20;;;;;;;13.80;7.30;;;;;;;-5.08;72.74;102442.36;84036;1327;1003109;-79
2022/03/10 05:50:29;;;;;;;16.30;8.00;;;;;;;-4.92;72.68;102445.17;84764;1328;24283;-77
2022/03/10 05:52:39;;;;;;;17.70;8.30;;;;;;;-4.63;72.57;102449.77;84760;1327;22603;-73
2022/03/10 05:54:52;;;;;;;18.20;8.50;;;;;;;-4.24;71.83;102456.52;84063;1327;1002869;-72
2022/03/10 05:57:01;;;;;;;12.70;8.60;;;;;;;-3.64;71.95;102448.52;84751;1329;24285;-72
2022/03/10 05:59:10;;;;;;;17.30;7.20;;;;;;;-2.93;71.18;102449.49;84742;1329;22586;-73
2022/03/10 06:01:19;;;;;;;20.50;8.60;;;;;;;-2.42;70.04;102448.59;84082;1327;1003638;-73
2022/03/10 06:03:29;;;;;;;11.70;7.70;;;;;;;-1.96;69.07;102448.71;84734;1330;22584;-74
2022/03/10 06:05:41;;;;;;;14.10;8.10;;;;;;;-1.15;68.90;102448.92;84742;1330;22723;-74
2022/03/10 06:07:50;;;;;;;17.60;7.30;;;;;;;-0.11;68.51;102452.49;84775;1330;22584;-73
2022/03/10 06:10:03;;;;;;;10.80;7.30;;;;;;;0.83;66.16;102450.47;84746;1330;22592;-73
2022/03/10 06:12:13;;;;;;;10.80;6.70;;;;;;;1.74;65.09;102454.41;84727;1328;22585;-73
2022/03/10 06:14:23;;;;;;;12.40;6.50;;;;;;;2.58;61.77;102458.11;84757;1327;22602;-73
2022/03/10 06:16:31;;;;;;;11.20;6.60;;;;;;;3.28;59.11;102458.41;84756;1327;21902;-71
2022/03/10 06:18:40;;;;;;;11.70;6.70;;;;;;;3.71;56.94;102461.73;84775;1327;24182;-74
2022/03/10 06:20:49;;;;;;;16.50;7.70;;;;;;;3.54;54.90;102466.17;84749;1327;22680;-74
2022/03/10 06:23:02;;;;;;;15.30;7.70;;;;;;;3.23;55.10;102470.56;84742;1327;22608;-76
2022/03/10 06:25:13;;;;;;;10.90;6.60;;;;;;;3.35;54.27;102474.13;84748;1324;22948;-78
2022/03/10 06:27:23;;;;;;;12.00;6.50;;;;;;;3.90;53.61;102476.00;84775;1327;24319;-74
2022/03/10 06:29:32;;;;;;;9.90;7.40;;;;;;;4.36;53.77;102475.29;84739;1327;22588;-73
2022/03/10 06:31:42;;;;;;;11.60;6.20;;;;;;;4.41;49.97;102482.81;84789;1327;22614;-74
2022/03/10 06:33:52;;;;;;;11.90;6.50;;;;;;;4.34;49.48;102482.00;84742;1328;22663;-75
2022/03/10 06:35:59;;;;;;;15.80;7.50;;;;;;;4.50;49.81;102487.52;84792;1327;23242;-73
2022/03/10 06:38:06;;;;;;;10.50;6.40;;;;;;;4.30;48.64;102486.90;84751;1327;22589;-75
2022/03/10 06:40:13;;;;;;;11.30;7.40;;;;;;;4.28;49.25;102491.19;84719;1322;22640;-74
2022/03/10 06:42:22;;;;;;;10.00;6.90;;;;;;;4.19;48.50;102497.04;84775;1327;22757;-73
2022/03/10 06:44:29;;;;;;;9.90;7.20;;;;;;;4.23;48.18;102492.63;84741;1330;22549;-74
2022/03/10 06:46:36;;;;;;;13.70;7.50;;;;;;;4.02;48.38;102499.76;84695;1327;22605;-77
2022/03/10 06:48:43;;;;;;;14.50;7.30;;;;;;;3.96;49.05;102498.93;84741;1327;22588;-77
2022/03/10 06:50:50;;;;;;;11.80;6.90;;;;;;;4.25;49.01;102502.19;84746;1327;22593;-77
2022/03/10 06:52:59;;;;;;;13.40;7.30;;;;;;;4.49;47.00;102501.65;84743;1330;22612;-77
2022/03/10 06:55:08;;;;;;;11.60;7.40;;;;;;;4.68;45.49;102497.20;84761;1324;24392;-76
2022/03/10 06:57:17;;;;;;;11.90;7.40;;;;;;;5.03;46.02;102497.73;84760;1330;22584;-74
2022/03/10 06:59:27;;;;;;;9.40;6.30;;;;;;;5.14;45.51;102502.45;84750;1326;24246;-73
2022/03/10 07:01:36;;;;;;;14.60;7.80;;;;;;;5.25;44.07;102504.89;84686;1330;22618;-78
2022/03/10 07:03:43;;;;;;;9.80;7.00;;;;;;;5.30;45.08;102501.52;84688;1331;22593;-77
2022/03/10 07:05:53;;;;;;;12.60;7.30;;;;;;;5.62;43.46;102501.90;84766;1327;22743;-77
2022/03/10 07:08:03;;;;;;;12.90;7.60;;;;;;;5.78;43.01;102499.71;84755;1327;25450;-75
2022/03/10 07:10:12;;;;;;;11.00;6.80;;;;;;;5.74;43.49;102502.61;84744;1328;22621;-74
2022/03/10 07:12:22;;;;;;;15.60;7.50;;;;;;;5.51;43.64;102508.64;84792;1325;22609;-74
2022/03/10 07:14:30;;;;;;;11.80;7.60;;;;;;;5.45;43.69;102507.48;84769;1329;22593;-77
2022/03/10 07:16:36;;;;;;;10.70;6.50;;;;;;;5.51;43.11;102511.05;84749;1327;22629;-75
2022/03/10 07:18:50;;;;;;;9.50;5.80;;;;;;;5.61;42.85;102510.01;84684;1328;22615;-73
2022/03/10 07:21:04;;;;;;;10.60;6.30;;;;;;;5.82;42.41;102506.36;84758;1323;24311;-76
2022/03/10 07:23:14;;;;;;;11.30;6.30;;;;;;;6.25;42.30;102505.66;84754;1327;22837;-73
2022/03/10 07:25:23;;;;;;;11.80;6.00;;;;;;;6.77;40.77;102509.10;84741;1327;24568;-74
2022/03/10 07:27:30;;;;;;;10.50;6.60;;;;;;;7.07;40.26;102509.97;84798;1327;25262;-73
2022/03/10 07:29:40;;;;;;;12.40;6.70;;;;;;;7.10;39.10;102509.99;84745;1329;22839;-73
2022/03/10 07:31:47;;;;;;;8.50;6.10;;;;;;;6.95;39.43;102515.90;84798;1328;24234;-73
2022/03/10 07:33:56;;;;;;;12.90;5.70;;;;;;;6.99;38.81;102517.87;84690;1330;22589;-74
2022/03/10 07:36:02;;;;;;;13.70;7.00;;;;;;;7.13;38.74;102519.06;84779;1323;22586;-73
2022/03/10 07:38:12;;;;;;;8.60;4.90;;;;;;;7.61;38.85;102525.25;84764;1327;22590;-72
2022/03/10 07:40:20;;;;;;;9.90;6.00;;;;;;;8.20;37.03;102519.10;84754;1327;25436;-74
2022/03/10 07:42:27;;;;;;;13.50;6.20;;;;;;;8.57;37.10;102511.67;84776;1327;22584;-72
2022/03/10 07:44:36;;;;;;;10.10;6.40;;;;;;;9.15;36.82;102511.17;84760;1325;22795;-74
2022/03/10 07:46:45;;;;;;;9.50;5.80;;;;;;;9.69;35.99;102508.27;84767;1327;22873;-75
2022/03/10 07:48:52;;;;;;;10.10;5.90;;;;;;;10.17;35.55;102506.30;84762;1327;22685;-74
2022/03/10 07:50:59;;;;;;;13.00;5.50;;;;;;;10.94;35.28;102505.16;84783;1327;24285;-74
2022/03/10 07:53:08;;;;;;;9.60;5.50;;;;;;;11.51;32.73;102500.95;84759;1330;22947;-74
2022/03/10 07:55:17;;;;;;;14.20;6.00;;;;;;;11.86;31.73;102505.22;84683;1332;22580;-73
2022/03/10 07:57:26;;;;;;;12.40;6.30;;;;;;;12.08;31.72;102502.91;84758;1327;22570;-77
2022/03/10 07:59:33;;;;;;;18.30;8.00;;;;;;;12.51;31.30;102500.50;84714;1330;22584;-78
2022/03/10 08:01:39;;;;;;;12.00;5.60;;;;;;;12.94;30.21;102507.84;84779;1330;22641;-74
2022/03/10 08:03:47;;;;;;;10.70;6.00;;;;;;;13.27;30.30;102513.70;84779;1330;25300;-74
2022/03/10 08:05:57;;;;;;;10.20;6.00;;;;;;;13.72;29.14;102509.84;84738;1328;22886;-73
2022/03/10 08:08:07;;;;;;;11.20;7.70;;;;;;;13.95;28.73;102506.10;84756;1328;22600;-77
2022/03/10 08:10:16;;;;;;;11.70;7.00;;;;;;;14.29;28.01;102507.38;84707;1329;22591;-78
2022/03/10 08:12:22;;;;;;;19.70;9.90;;;;;;;14.36;26.30;102510.23;84763;1329;22566;-79
2022/03/10 08:14:35;;;;;;;9.30;6.80;;;;;;;14.44;27.27;102510.78;84770;1327;22604;-76
2022/03/10 08:16:44;;;;;;;12.10;6.80;;;;;;;14.44;26.20;102512.38;84757;1330;26163;-79
2022/03/10 08:18:54;;;;;;;36.90;18.20;;;;;;;14.29;26.22;102512.65;84775;1327;23905;-80
2022/03/10 08:21:03;;;;;;;25.80;14.40;;;;;;;14.38;26.41;102505.83;84789;1327;25314;-78
2022/03/10 08:23:10;;;;;;;12.80;6.50;;;;;;;14.55;25.08;102510.96;84753;1327;24257;-80
2022/03/10 08:25:17;;;;;;;17.50;10.20;;;;;;;14.48;24.36;102506.14;84752;1327;23924;-78
2022/03/10 08:27:24;;;;;;;18.40;10.30;;;;;;;14.44;24.86;102506.20;84749;1327;22583;-72
2022/03/10 08:29:34;;;;;;;13.20;8.20;;;;;;;14.68;24.67;102506.81;84743;1327;25438;-72
2022/03/10 08:31:41;;;;;;;28.10;12.60;;;;;;;14.83;23.97;102504.21;84767;1328;22715;-78
2022/03/10 08:33:50;;;;;;;13.70;9.50;;;;;;;14.89;23.81;102512.14;84759;1327;22596;-81
2022/03/10 08:36:00;;;;;;;11.40;6.60;;;;;;;14.85;23.63;102503.10;84745;1324;22611;-76
2022/03/10 08:38:11;;;;;;;5.70;4.70;;;;;;;15.08;24.27;102508.23;84743;1327;24241;-71
2022/03/10 08:40:19;;;;;;;14.80;7.90;;;;;;;15.37;23.18;102508.43;84741;1327;25300;-72
2022/03/10 08:42:28;;;;;;;10.10;5.70;;;;;;;15.32;22.26;102510.29;84770;1329;23958;-80
2022/03/10 08:44:37;;;;;;;4.40;3.90;;;;;;;15.21;22.69;102507.73;84774;1328;24419;-77
2022/03/10 08:46:46;;;;;;;13.40;7.30;;;;;;;15.30;22.30;102508.40;84770;1327;23054;-74
2022/03/10 08:48:55;;;;;;;16.80;10.00;;;;;;;15.06;21.77;102508.42;84682;1330;23962;-73
2022/03/10 08:51:06;;;;;;;8.50;4.10;;;;;;;14.85;21.83;102509.42;84771;1328;25290;-72
2022/03/10 08:53:15;;;;;;;13.60;8.80;;;;;;;14.93;22.30;102511.55;84770;1321;22588;-71
2022/03/10 08:55:24;;;;;;;8.90;5.50;;;;;;;15.00;21.41;102514.89;84779;1328;22877;-70
2022/03/10 08:57:33;;;;;;;4.40;4.00;;;;;;;14.93;21.31;102510.81;84747;1327;22710;-74
2022/03/10 08:59:42;;;;;;;5.50;3.60;;;;;;;14.63;20.40;102519.05;84778;1327;25703;-79
2022/03/10 09:01:50;;;;;;;4.90;3.90;;;;;;;14.40;21.23;102516.48;84736;1329;22586;-79
2022/03/10 09:04:00;;;;;;;4.80;3.50;;;;;;;14.45;20.18;102514.65;84778;1329;22578;-76
2022/03/10 09:06:13;;;;;;;4.90;3.50;;;;;;;14.08;20.75;102511.13;84685;1329;22601;-79
2022/03/10 09:08:22;;;;;;;5.30;4.30;;;;;;;13.73;20.69;102513.66;84758;1330;22576;-79
2022/03/10 09:10:31;;;;;;;5.20;4.30;;;;;;;13.57;21.61;102510.77;84754;1327;25253;-77
2022/03/10 09:12:40;;;;;;;8.30;5.10;;;;;;;13.78;22.19;102512.00;84728;1330;22809;-72
2022/03/10 09:14:50;;;;;;;8.80;3.60;;;;;;;14.02;21.53;102511.94;84751;1327;22566;-72
2022/03/10 09:16:59;;;;;;;9.60;3.70;;;;;;;14.31;20.85;102511.73;84779;1329;24311;-81
2022/03/10 09:19:08;;;;;;;8.20;3.80;;;;;;;14.45;20.82;102511.80;84742;1327;22603;-80
2022/03/10 09:21:17;;;;;;;5.50;3.70;;;;;;;14.49;21.28;102505.98;84798;1327;22597;-82
2022/03/10 09:23:28;;;;;;;;;;;;;;;14.48;20.25;102511.23;84709;1330;22829;-82
2022/03/10 09:25:38;;;;;;;7.50;3.90;;;;;;;14.28;20.43;102506.52;84776;1324;22696;-84
2022/03/10 09:27:51;;;;;;;4.60;4.00;;;;;;;14.13;19.86;102503.99;84760;1329;22607;-83
2022/03/10 09:30:00;;;;;;;5.90;3.80;;;;;;;14.02;20.51;102507.36;84759;1330;22587;-79
2022/03/10 09:32:09;;;;;;;6.80;4.70;;;;;;;13.83;19.79;102502.61;84764;1327;22593;-72
2022/03/10 09:34:18;;;;;;;6.30;4.00;;;;;;;13.81;20.75;102505.46;84757;1327;24063;-72
2022/03/10 09:36:31;;;;;;;7.10;5.90;;;;;;;14.00;20.58;102499.34;84778;1329;22633;-81
2022/03/10 09:38:40;;;;;;;10.60;4.00;;;;;;;13.85;20.03;102501.70;84733;1327;22624;-81
2022/03/10 09:40:53;;;;;;;6.50;5.70;;;;;;;13.54;20.27;102498.20;84791;1325;22718;-81
2022/03/10 09:43:03;;;;;;;5.40;3.70;;;;;;;13.41;20.66;102503.15;84692;1328;22580;-82
2022/03/10 09:45:15;;;;;;;5.40;4.60;;;;;;;13.32;20.87;102502.76;84762;1330;25479;-81
2022/03/10 09:47:29;;;;;;;9.60;6.20;;;;;;;13.37;20.63;102507.25;84750;1330;22799;-82
2022/03/10 09:49:39;;;;;;;5.60;4.40;;;;;;;13.31;19.92;102507.67;84765;1328;25577;-80
2022/03/10 09:51:48;;;;;;;13.10;7.30;;;;;;;13.06;20.38;102504.16;84776;1327;22607;-80
2022/03/10 09:53:57;;;;;;;8.30;6.10;;;;;;;13.06;20.88;102504.88;84758;1330;23990;-82
2022/03/10 09:56:06;;;;;;;12.90;4.20;;;;;;;13.02;20.82;102502.99;84783;1327;22605;-80
2022/03/10 09:58:15;;;;;;;15.60;5.70;;;;;;;13.11;20.71;102504.63;84773;1327;22600;-81
2022/03/10 10:00:25;;;;;;;5.50;4.10;;;;;;;13.21;20.77;102516.58;84726;1327;23802;-80
2022/03/10 10:02:31;;;;;;;8.00;4.40;;;;;;;13.19;20.29;102511.54;84684;1330;25309;-82